sensor_id;sensor_type;location;lat;lon;timestamp;temperature;humidity
17797;DHT22;55596;53.554;9.916;2022-07-24T00:01:36;11.70;99.90
17797;DHT22;55596;53.554;9.916;2022-07-24T00:04:03;11.80;99.90
17797;DHT22;55596;53.554;9.916;2022-07-24T00:06:30;11.30;99.90
17797;DHT22;55596;53.554;9.916;2022-07-24T00:08:57;11.50;99.90
17797;DHT22;55596;53.554;9.916;2022-07-24T00:11:27;11.30;99.90
17797;DHT22;55596;53.554;9.916;2022-07-24T00:13:54;12.60;99.90
17797;DHT22;55596;53.554;9.916;2022-07-24T00:16:21;11.40;99.90
17797;DHT22;55596;53.554;9.916;2022-07-24T00:18:51;11.50;99.90
17797;DHT22;55596;53.554;9.916;2022-07-24T00:21:18;11.50;99.90
17797;DHT22;55596;53.554;9.916;2022-07-24T00:23:45;11.40;99.90
17797;DHT22;55596;53.554;9.916;2022-07-24T00:26:12;11.60;99.90
17797;DHT22;55596;53.554;9.916;2022-07-24T00:28:41;13.30;99.90
17797;DHT22;55596;53.554;9.916;2022-07-24T00:31:08;11.30;99.90
17797;DHT22;55596;53.554;9.916;2022-07-24T00:33:35;11.40;99.90
17797;DHT22;55596;53.554;9.916;2022-07-24T00:36:02;11.40;99.90
17797;DHT22;55596;53.554;9.916;2022-07-24T00:38:29;11.20;99.90
17797;DHT22;55596;53.554;9.916;2022-07-24T00:40:58;11.40;99.90
17797;DHT22;55596;53.554;9.916;2022-07-24T00:43:24;11.40;99.90
17797;DHT22;55596;53.554;9.916;2022-07-24T00:45:53;11.40;99.90
17797;DHT22;55596;53.554;9.916;2022-07-24T00:48:20;11.10;99.90
17797;DHT22;55596;53.554;9.916;2022-07-24T00:50:47;11.20;99.90
17797;DHT22;55596;53.554;9.916;2022-07-24T00:55:41;11.30;99.90
17797;DHT22;55596;53.554;9.916;2022-07-24T00:58:09;11.30;99.90
17797;DHT22;55596;53.554;9.916;2022-07-24T01:00:38;11.20;99.90
17797;DHT22;55596;53.554;9.916;2022-07-24T01:03:08;11.00;99.90
17797;DHT22;55596;53.554;9.916;2022-07-24T01:05:35;11.30;99.90
17797;DHT22;55596;53.554;9.916;2022-07-24T01:08:02;11.40;99.90
17797;DHT22;55596;53.554;9.916;2022-07-24T01:10:30;11.30;99.90
17797;DHT22;55596;53.554;9.916;2022-07-24T01:12:57;11.20;99.90
17797;DHT22;55596;53.554;9.916;2022-07-24T01:15:24;11.00;99.90
17797;DHT22;55596;53.554;9.916;2022-07-24T01:17:50;11.10;99.90
17797;DHT22;55596;53.554;9.916;2022-07-24T01:20:19;11.20;99.90
17797;DHT22;55596;53.554;9.916;2022-07-24T01:22:47;11.10;99.90
17797;DHT22;55596;53.554;9.916;2022-07-24T01:25:14;12.30;99.90
17797;DHT22;55596;53.554;9.916;2022-07-24T01:27:41;11.00;99.90
17797;DHT22;55596;53.554;9.916;2022-07-24T01:30:09;10.90;99.90
17797;DHT22;55596;53.554;9.916;2022-07-24T01:32:36;10.90;99.90
17797;DHT22;55596;53.554;9.916;2022-07-24T01:35:03;10.90;99.90
17797;DHT22;55596;53.554;9.916;2022-07-24T01:37:30;10.70;99.90
17797;DHT22;55596;53.554;9.916;2022-07-24T01:39:58;10.70;99.90
17797;DHT22;55596;53.554;9.916;2022-07-24T01:42:25;11.00;99.90
17797;DHT22;55596;53.554;9.916;2022-07-24T01:44:52;11.10;99.90
17797;DHT22;55596;53.554;9.916;2022-07-24T01:47:19;10.80;99.90
17797;DHT22;55596;53.554;9.916;2022-07-24T01:49:45;10.80;99.90
17797;DHT22;55596;53.554;9.916;2022-07-24T01:52:12;10.80;99.90
17797;DHT22;55596;53.554;9.916;2022-07-24T01:54:39;10.90;99.90
17797;DHT22;55596;53.554;9.916;2022-07-24T01:57:07;11.00;99.90
17797;DHT22;55596;53.554;9.916;2022-07-24T01:59:34;10.90;99.90
17797;DHT22;55596;53.554;9.916;2022-07-24T02:02:01;11.00;99.90
17797;DHT22;55596;53.554;9.916;2022-07-24T02:04:28;10.90;99.90
17797;DHT22;55596;53.554;9.916;2022-07-24T02:06:55;10.90;99.90
17797;DHT22;55596;53.554;9.916;2022-07-24T02:09:22;10.90;99.90
17797;DHT22;55596;53.554;9.916;2022-07-24T02:11:49;11.00;99.90
17797;DHT22;55596;53.554;9.916;2022-07-24T02:14:17;11.00;99.90
17797;DHT22;55596;53.554;9.916;2022-07-24T02:16:44;10.90;99.90
17797;DHT22;55596;53.554;9.916;2022-07-24T02:19:11;10.90;99.90
17797;DHT22;55596;53.554;9.916;2022-07-24T02:21:38;11.00;99.90
17797;DHT22;55596;53.554;9.916;2022-07-24T02:24:05;10.80;99.90
17797;DHT22;55596;53.554;9.916;2022-07-24T02:26:32;10.80;99.90
17797;DHT22;55596;53.554;9.916;2022-07-24T02:29:00;10.70;99.90
17797;DHT22;55596;53.554;9.916;2022-07-24T02:31:29;10.70;99.90
17797;DHT22;55596;53.554;9.916;2022-07-24T02:33:55;10.70;99.90
17797;DHT22;55596;53.554;9.916;2022-07-24T02:36:22;10.70;99.90
17797;DHT22;55596;53.554;9.916;2022-07-24T02:38:49;11.00;99.90
17797;DHT22;55596;53.554;9.916;2022-07-24T02:41:17;10.70;99.90
17797;DHT22;55596;53.554;9.916;2022-07-24T02:43:44;10.60;99.90
17797;DHT22;55596;53.554;9.916;2022-07-24T02:46:11;8.00;99.90
17797;DHT22;55596;53.554;9.916;2022-07-24T02:48:39;10.60;99.90
17797;DHT22;55596;53.554;9.916;2022-07-24T02:51:06;10.50;99.90
17797;DHT22;55596;53.554;9.916;2022-07-24T02:53:33;10.60;99.90
17797;DHT22;55596;53.554;9.916;2022-07-24T02:56:00;10.40;99.90
17797;DHT22;55596;53.554;9.916;2022-07-24T02:58:26;10.50;99.90
17797;DHT22;55596;53.554;9.916;2022-07-24T03:00:53;10.60;99.90
17797;DHT22;55596;53.554;9.916;2022-07-24T03:03:20;10.60;99.90
17797;DHT22;55596;53.554;9.916;2022-07-24T03:05:48;10.50;99.90
17797;DHT22;55596;53.554;9.916;2022-07-24T03:08:15;10.60;99.90
17797;DHT22;55596;53.554;9.916;2022-07-24T03:10:42;10.60;99.90
17797;DHT22;55596;53.554;9.916;2022-07-24T03:13:09;10.60;99.90
17797;DHT22;55596;53.554;9.916;2022-07-24T03:15:36;10.50;99.90
17797;DHT22;55596;53.554;9.916;2022-07-24T03:18:03;10.70;99.90
17797;DHT22;55596;53.554;9.916;2022-07-24T03:20:30;10.70;99.90
17797;DHT22;55596;53.554;9.916;2022-07-24T03:22:58;10.70;99.90
17797;DHT22;55596;53.554;9.916;2022-07-24T03:25:25;10.70;99.90
17797;DHT22;55596;53.554;9.916;2022-07-24T03:27:52;10.70;99.90
17797;DHT22;55596;53.554;9.916;2022-07-24T03:30:19;10.60;99.90
17797;DHT22;55596;53.554;9.916;2022-07-24T03:32:46;10.80;99.90
17797;DHT22;55596;53.554;9.916;2022-07-24T03:35:13;10.90;99.90
17797;DHT22;55596;53.554;9.916;2022-07-24T03:37:40;10.90;99.90
17797;DHT22;55596;53.554;9.916;2022-07-24T03:40:10;11.00;99.90
17797;DHT22;55596;53.554;9.916;2022-07-24T03:42:37;11.00;99.90
17797;DHT22;55596;53.554;9.916;2022-07-24T03:45:05;10.90;99.90
17797;DHT22;55596;53.554;9.916;2022-07-24T03:47:32;11.00;99.90
17797;DHT22;55596;53.554;9.916;2022-07-24T03:49:59;11.10;99.90
17797;DHT22;55596;53.554;9.916;2022-07-24T03:52:26;11.00;99.90
17797;DHT22;55596;53.554;9.916;2022-07-24T03:54:54;11.20;99.90
17797;DHT22;55596;53.554;9.916;2022-07-24T03:57:23;11.30;99.90
17797;DHT22;55596;53.554;9.916;2022-07-24T03:59:50;11.60;99.90
17797;DHT22;55596;53.554;9.916;2022-07-24T04:02:17;11.50;99.90
17797;DHT22;55596;53.554;9.916;2022-07-24T04:04:44;11.70;99.90
17797;DHT22;55596;53.554;9.916;2022-07-24T04:07:11;11.70;99.90
17797;DHT22;55596;53.554;9.916;2022-07-24T04:09:38;11.80;99.90
17797;DHT22;55596;53.554;9.916;2022-07-24T04:12:06;11.80;99.90
17797;DHT22;55596;53.554;9.916;2022-07-24T04:14:34;11.90;99.90
17797;DHT22;55596;53.554;9.916;2022-07-24T04:17:01;12.10;99.90
17797;DHT22;55596;53.554;9.916;2022-07-24T04:19:28;12.10;99.90
17797;DHT22;55596;53.554;9.916;2022-07-24T04:21:55;12.30;99.90
17797;DHT22;55596;53.554;9.916;2022-07-24T04:24:22;12.20;99.90
17797;DHT22;55596;53.554;9.916;2022-07-24T04:26:49;12.40;99.90
17797;DHT22;55596;53.554;9.916;2022-07-24T04:29:16;12.50;99.90
17797;DHT22;55596;53.554;9.916;2022-07-24T04:31:44;12.40;99.90
17797;DHT22;55596;53.554;9.916;2022-07-24T04:34:11;12.50;99.90
17797;DHT22;55596;53.554;9.916;2022-07-24T04:36:38;12.60;99.90
17797;DHT22;55596;53.554;9.916;2022-07-24T04:39:05;15.00;99.90
17797;DHT22;55596;53.554;9.916;2022-07-24T04:41:32;12.70;99.90
17797;DHT22;55596;53.554;9.916;2022-07-24T04:43:59;12.70;99.90
17797;DHT22;55596;53.554;9.916;2022-07-24T04:46:25;12.90;99.90
17797;DHT22;55596;53.554;9.916;2022-07-24T04:48:54;12.80;99.90
17797;DHT22;55596;53.554;9.916;2022-07-24T04:51:21;12.90;99.90
17797;DHT22;55596;53.554;9.916;2022-07-24T04:53:48;13.00;99.90
17797;DHT22;55596;53.554;9.916;2022-07-24T04:56:18;13.00;99.90
17797;DHT22;55596;53.554;9.916;2022-07-24T04:58:45;13.30;99.90
17797;DHT22;55596;53.554;9.916;2022-07-24T05:01:12;13.20;99.90
17797;DHT22;55596;53.554;9.916;2022-07-24T05:03:39;13.30;99.90
17797;DHT22;55596;53.554;9.916;2022-07-24T05:06:07;13.20;99.90
17797;DHT22;55596;53.554;9.916;2022-07-24T05:08:34;13.40;99.90
17797;DHT22;55596;53.554;9.916;2022-07-24T05:11:01;13.20;99.90
17797;DHT22;55596;53.554;9.916;2022-07-24T05:13:28;13.10;99.90
17797;DHT22;55596;53.554;9.916;2022-07-24T05:15:55;13.60;99.90
17797;DHT22;55596;53.554;9.916;2022-07-24T05:18:21;13.60;99.90
17797;DHT22;55596;53.554;9.916;2022-07-24T05:20:48;13.80;99.90
17797;DHT22;55596;53.554;9.916;2022-07-24T05:23:17;13.80;99.90
17797;DHT22;55596;53.554;9.916;2022-07-24T05:25:44;14.00;99.90
17797;DHT22;55596;53.554;9.916;2022-07-24T05:28:10;14.00;99.90
17797;DHT22;55596;53.554;9.916;2022-07-24T05:30:37;14.20;99.90
17797;DHT22;55596;53.554;9.916;2022-07-24T05:33:04;14.20;99.90
17797;DHT22;55596;53.554;9.916;2022-07-24T05:35:31;14.50;99.90
17797;DHT22;55596;53.554;9.916;2022-07-24T05:37:58;14.40;99.90
17797;DHT22;55596;53.554;9.916;2022-07-24T05:40:26;14.60;99.90
17797;DHT22;55596;53.554;9.916;2022-07-24T05:42:53;14.60;99.90
17797;DHT22;55596;53.554;9.916;2022-07-24T05:45:20;14.60;99.90
17797;DHT22;55596;53.554;9.916;2022-07-24T05:47:47;14.80;99.90
17797;DHT22;55596;53.554;9.916;2022-07-24T05:50:14;15.20;99.90
17797;DHT22;55596;53.554;9.916;2022-07-24T05:52:41;15.20;99.90
17797;DHT22;55596;53.554;9.916;2022-07-24T05:55:09;15.10;99.90
17797;DHT22;55596;53.554;9.916;2022-07-24T05:57:37;15.40;99.90
17797;DHT22;55596;53.554;9.916;2022-07-24T06:00:04;15.70;99.90
17797;DHT22;55596;53.554;9.916;2022-07-24T06:02:31;15.70;99.90
17797;DHT22;55596;53.554;9.916;2022-07-24T06:04:58;15.90;99.90
17797;DHT22;55596;53.554;9.916;2022-07-24T06:07:26;15.90;99.90
17797;DHT22;55596;53.554;9.916;2022-07-24T06:09:53;13.70;99.90
17797;DHT22;55596;53.554;9.916;2022-07-24T06:12:23;16.60;99.90
17797;DHT22;55596;53.554;9.916;2022-07-24T06:14:51;16.40;99.90
17797;DHT22;55596;53.554;9.916;2022-07-24T06:17:18;16.40;99.90
17797;DHT22;55596;53.554;9.916;2022-07-24T06:19:49;16.50;99.90
17797;DHT22;55596;53.554;9.916;2022-07-24T06:22:18;16.50;99.90
17797;DHT22;55596;53.554;9.916;2022-07-24T06:24:51;16.50;99.90
17797;DHT22;55596;53.554;9.916;2022-07-24T06:27:20;16.70;99.90
17797;DHT22;55596;53.554;9.916;2022-07-24T06:29:47;16.70;99.90
17797;DHT22;55596;53.554;9.916;2022-07-24T06:32:15;16.70;99.90
17797;DHT22;55596;53.554;9.916;2022-07-24T06:34:43;16.80;99.90
17797;DHT22;55596;53.554;9.916;2022-07-24T06:37:10;17.00;99.90
17797;DHT22;55596;53.554;9.916;2022-07-24T06:39:37;16.80;99.90
17797;DHT22;55596;53.554;9.916;2022-07-24T06:42:05;17.00;99.90
17797;DHT22;55596;53.554;9.916;2022-07-24T06:44:32;17.10;99.90
17797;DHT22;55596;53.554;9.916;2022-07-24T06:47:01;17.10;99.90
17797;DHT22;55596;53.554;9.916;2022-07-24T06:49:30;17.30;99.90
17797;DHT22;55596;53.554;9.916;2022-07-24T06:51:57;17.30;99.90
17797;DHT22;55596;53.554;9.916;2022-07-24T06:54:25;17.40;99.90
17797;DHT22;55596;53.554;9.916;2022-07-24T06:56:52;17.10;99.90
17797;DHT22;55596;53.554;9.916;2022-07-24T06:59:19;17.40;99.90
17797;DHT22;55596;53.554;9.916;2022-07-24T07:01:46;17.60;99.90
17797;DHT22;55596;53.554;9.916;2022-07-24T07:04:14;17.70;99.90
17797;DHT22;55596;53.554;9.916;2022-07-24T07:06:48;17.80;99.90
17797;DHT22;55596;53.554;9.916;2022-07-24T07:09:18;17.90;99.90
17797;DHT22;55596;53.554;9.916;2022-07-24T07:11:46;18.00;99.90
17797;DHT22;55596;53.554;9.916;2022-07-24T07:14:13;17.90;99.90
17797;DHT22;55596;53.554;9.916;2022-07-24T07:16:42;18.10;99.90
17797;DHT22;55596;53.554;9.916;2022-07-24T07:19:10;18.10;99.90
17797;DHT22;55596;53.554;9.916;2022-07-24T07:21:38;18.40;99.90
17797;DHT22;55596;53.554;9.916;2022-07-24T07:24:07;18.50;99.90
17797;DHT22;55596;53.554;9.916;2022-07-24T07:26:34;18.60;99.90
17797;DHT22;55596;53.554;9.916;2022-07-24T07:29:01;18.80;99.90
17797;DHT22;55596;53.554;9.916;2022-07-24T07:31:28;18.80;99.90
17797;DHT22;55596;53.554;9.916;2022-07-24T07:33:55;19.10;99.90
17797;DHT22;55596;53.554;9.916;2022-07-24T07:36:23;19.10;99.90
17797;DHT22;55596;53.554;9.916;2022-07-24T07:38:50;19.10;99.90
17797;DHT22;55596;53.554;9.916;2022-07-24T07:41:19;19.30;99.90
17797;DHT22;55596;53.554;9.916;2022-07-24T07:43:46;19.30;99.90
17797;DHT22;55596;53.554;9.916;2022-07-24T07:46:14;19.40;99.90
17797;DHT22;55596;53.554;9.916;2022-07-24T07:48:41;19.70;99.90
17797;DHT22;55596;53.554;9.916;2022-07-24T07:51:08;19.60;99.90
17797;DHT22;55596;53.554;9.916;2022-07-24T07:53:36;19.80;99.90
17797;DHT22;55596;53.554;9.916;2022-07-24T07:56:03;19.80;99.90
17797;DHT22;55596;53.554;9.916;2022-07-24T07:58:33;19.90;99.90
17797;DHT22;55596;53.554;9.916;2022-07-24T08:01:03;19.80;99.90
17797;DHT22;55596;53.554;9.916;2022-07-24T08:03:30;19.60;99.90
17797;DHT22;55596;53.554;9.916;2022-07-24T08:05:59;20.00;99.90
17797;DHT22;55596;53.554;9.916;2022-07-24T08:08:27;20.10;99.90
17797;DHT22;55596;53.554;9.916;2022-07-24T08:10:54;20.40;99.90
17797;DHT22;55596;53.554;9.916;2022-07-24T08:13:21;20.30;99.90
17797;DHT22;55596;53.554;9.916;2022-07-24T08:15:50;20.30;99.90
17797;DHT22;55596;53.554;9.916;2022-07-24T08:18:16;20.40;99.90
17797;DHT22;55596;53.554;9.916;2022-07-24T08:20:43;20.70;99.90
17797;DHT22;55596;53.554;9.916;2022-07-24T08:23:10;20.60;99.90
17797;DHT22;55596;53.554;9.916;2022-07-24T08:25:38;20.60;99.90
17797;DHT22;55596;53.554;9.916;2022-07-24T08:28:05;20.80;99.90
17797;DHT22;55596;53.554;9.916;2022-07-24T08:30:32;21.00;99.90
17797;DHT22;55596;53.554;9.916;2022-07-24T08:33:00;21.10;99.90
17797;DHT22;55596;53.554;9.916;2022-07-24T08:35:27;21.10;99.90
17797;DHT22;55596;53.554;9.916;2022-07-24T08:37:54;21.50;99.90
17797;DHT22;55596;53.554;9.916;2022-07-24T08:40:22;20.60;99.90
17797;DHT22;55596;53.554;9.916;2022-07-24T08:42:49;21.60;99.90
17797;DHT22;55596;53.554;9.916;2022-07-24T08:45:16;21.70;99.90
17797;DHT22;55596;53.554;9.916;2022-07-24T08:47:43;21.80;99.90
17797;DHT22;55596;53.554;9.916;2022-07-24T08:50:12;21.90;99.90
17797;DHT22;55596;53.554;9.916;2022-07-24T08:52:39;22.00;99.90
17797;DHT22;55596;53.554;9.916;2022-07-24T08:55:07;22.20;99.90
17797;DHT22;55596;53.554;9.916;2022-07-24T08:57:34;21.90;99.90
17797;DHT22;55596;53.554;9.916;2022-07-24T09:00:00;22.20;99.90
17797;DHT22;55596;53.554;9.916;2022-07-24T09:02:27;22.30;99.90
17797;DHT22;55596;53.554;9.916;2022-07-24T09:04:58;22.40;99.90
17797;DHT22;55596;53.554;9.916;2022-07-24T09:07:28;22.60;99.90
17797;DHT22;55596;53.554;9.916;2022-07-24T09:10:00;22.70;99.90
17797;DHT22;55596;53.554;9.916;2022-07-24T09:12:30;22.90;99.90
17797;DHT22;55596;53.554;9.916;2022-07-24T09:14:59;23.10;99.90
17797;DHT22;55596;53.554;9.916;2022-07-24T09:17:27;23.70;99.90
17797;DHT22;55596;53.554;9.916;2022-07-24T09:19:55;23.90;99.90
17797;DHT22;55596;53.554;9.916;2022-07-24T09:22:35;24.30;99.90
17797;DHT22;55596;53.554;9.916;2022-07-24T09:25:08;24.50;99.90
17797;DHT22;55596;53.554;9.916;2022-07-24T09:27:39;24.70;99.90
17797;DHT22;55596;53.554;9.916;2022-07-24T09:30:08;25.40;99.90
17797;DHT22;55596;53.554;9.916;2022-07-24T09:32:37;25.70;99.90
17797;DHT22;55596;53.554;9.916;2022-07-24T09:35:06;26.10;99.90
17797;DHT22;55596;53.554;9.916;2022-07-24T09:37:36;26.30;99.90
17797;DHT22;55596;53.554;9.916;2022-07-24T09:40:09;26.30;99.90
17797;DHT22;55596;53.554;9.916;2022-07-24T09:42:36;26.10;99.90
17797;DHT22;55596;53.554;9.916;2022-07-24T09:45:07;25.60;99.90
17797;DHT22;55596;53.554;9.916;2022-07-24T09:47:39;25.40;99.90
17797;DHT22;55596;53.554;9.916;2022-07-24T09:50:15;25.30;99.90
17797;DHT22;55596;53.554;9.916;2022-07-24T09:52:44;25.10;99.90
17797;DHT22;55596;53.554;9.916;2022-07-24T09:55:24;25.20;99.90
17797;DHT22;55596;53.554;9.916;2022-07-24T09:57:52;25.40;99.90
17797;DHT22;55596;53.554;9.916;2022-07-24T10:00:19;25.30;99.90
17797;DHT22;55596;53.554;9.916;2022-07-24T10:02:47;25.40;99.90
17797;DHT22;55596;53.554;9.916;2022-07-24T10:05:17;25.70;99.90
17797;DHT22;55596;53.554;9.916;2022-07-24T10:07:51;25.40;99.90
17797;DHT22;55596;53.554;9.916;2022-07-24T10:10:22;25.30;99.90
17797;DHT22;55596;53.554;9.916;2022-07-24T10:12:55;25.60;99.90
17797;DHT22;55596;53.554;9.916;2022-07-24T10:15:28;25.40;99.90
17797;DHT22;55596;53.554;9.916;2022-07-24T10:18:14;25.10;99.90
17797;DHT22;55596;53.554;9.916;2022-07-24T10:20:43;25.20;99.90
17797;DHT22;55596;53.554;9.916;2022-07-24T10:23:24;25.40;99.90
17797;DHT22;55596;53.554;9.916;2022-07-24T10:25:56;25.20;99.90
17797;DHT22;55596;53.554;9.916;2022-07-24T10:28:39;25.20;99.90
17797;DHT22;55596;53.554;9.916;2022-07-24T10:31:08;25.70;99.90
17797;DHT22;55596;53.554;9.916;2022-07-24T10:33:37;25.80;99.90
17797;DHT22;55596;53.554;9.916;2022-07-24T10:36:14;26.10;99.90
17797;DHT22;55596;53.554;9.916;2022-07-24T10:38:51;26.00;99.90
17797;DHT22;55596;53.554;9.916;2022-07-24T10:41:25;26.00;99.90
17797;DHT22;55596;53.554;9.916;2022-07-24T10:44:11;26.10;99.90
17797;DHT22;55596;53.554;9.916;2022-07-24T10:47:00;26.00;99.90
17797;DHT22;55596;53.554;9.916;2022-07-24T10:49:42;26.10;99.90
17797;DHT22;55596;53.554;9.916;2022-07-24T10:52:14;26.20;99.90
17797;DHT22;55596;53.554;9.916;2022-07-24T10:54:49;26.50;99.90
17797;DHT22;55596;53.554;9.916;2022-07-24T10:57:50;26.50;99.90
17797;DHT22;55596;53.554;9.916;2022-07-24T11:00:24;26.60;99.90
17797;DHT22;55596;53.554;9.916;2022-07-24T11:02:57;26.90;99.90
17797;DHT22;55596;53.554;9.916;2022-07-24T11:05:28;28.50;99.90
17797;DHT22;55596;53.554;9.916;2022-07-24T11:08:29;27.40;99.90
17797;DHT22;55596;53.554;9.916;2022-07-24T11:11:25;27.10;99.90
17797;DHT22;55596;53.554;9.916;2022-07-24T11:13:56;27.30;99.90
17797;DHT22;55596;53.554;9.916;2022-07-24T11:16:30;27.20;93.00
17797;DHT22;55596;53.554;9.916;2022-07-24T11:19:26;27.30;97.90
17797;DHT22;55596;53.554;9.916;2022-07-24T11:22:10;27.50;99.80
17797;DHT22;55596;53.554;9.916;2022-07-24T11:25:09;27.60;95.70
17797;DHT22;55596;53.554;9.916;2022-07-24T11:27:55;27.90;99.20
17797;DHT22;55596;53.554;9.916;2022-07-24T11:30:28;28.00;90.60
17797;DHT22;55596;53.554;9.916;2022-07-24T11:32:56;28.20;94.60
17797;DHT22;55596;53.554;9.916;2022-07-24T11:35:31;28.40;94.30
17797;DHT22;55596;53.554;9.916;2022-07-24T11:38:00;28.40;96.00
17797;DHT22;55596;53.554;9.916;2022-07-24T11:40:27;28.60;81.10
17797;DHT22;55596;53.554;9.916;2022-07-24T11:42:57;28.60;85.20
17797;DHT22;55596;53.554;9.916;2022-07-24T11:45:27;29.00;78.60
17797;DHT22;55596;53.554;9.916;2022-07-24T11:47:54;29.30;90.70
17797;DHT22;55596;53.554;9.916;2022-07-24T11:50:24;29.90;86.10
17797;DHT22;55596;53.554;9.916;2022-07-24T11:52:52;30.00;82.40
17797;DHT22;55596;53.554;9.916;2022-07-24T11:55:22;30.40;81.40
17797;DHT22;55596;53.554;9.916;2022-07-24T11:57:52;31.00;80.60
17797;DHT22;55596;53.554;9.916;2022-07-24T12:00:22;31.00;77.80
17797;DHT22;55596;53.554;9.916;2022-07-24T12:02:51;31.80;72.40
17797;DHT22;55596;53.554;9.916;2022-07-24T12:05:27;32.50;63.30
17797;DHT22;55596;53.554;9.916;2022-07-24T12:07:55;33.20;65.90
17797;DHT22;55596;53.554;9.916;2022-07-24T12:10:23;33.00;64.60
17797;DHT22;55596;53.554;9.916;2022-07-24T12:12:51;32.90;63.80
17797;DHT22;55596;53.554;9.916;2022-07-24T12:15:21;32.70;64.00
17797;DHT22;55596;53.554;9.916;2022-07-24T12:17:57;33.10;65.40
17797;DHT22;55596;53.554;9.916;2022-07-24T12:20:26;34.20;63.00
17797;DHT22;55596;53.554;9.916;2022-07-24T12:22:53;34.30;60.40
17797;DHT22;55596;53.554;9.916;2022-07-24T12:25:22;34.50;56.10
17797;DHT22;55596;53.554;9.916;2022-07-24T12:28:03;34.20;55.80
17797;DHT22;55596;53.554;9.916;2022-07-24T12:30:34;33.60;56.50
17797;DHT22;55596;53.554;9.916;2022-07-24T12:33:03;33.30;59.00
17797;DHT22;55596;53.554;9.916;2022-07-24T12:35:31;33.40;60.10
17797;DHT22;55596;53.554;9.916;2022-07-24T12:37:59;34.40;57.20
17797;DHT22;55596;53.554;9.916;2022-07-24T12:40:31;35.10;54.20
17797;DHT22;55596;53.554;9.916;2022-07-24T12:43:01;35.10;56.00
17797;DHT22;55596;53.554;9.916;2022-07-24T12:45:29;35.30;52.60
17797;DHT22;55596;53.554;9.916;2022-07-24T12:48:18;35.00;55.70
17797;DHT22;55596;53.554;9.916;2022-07-24T12:51:06;34.40;55.30
17797;DHT22;55596;53.554;9.916;2022-07-24T12:53:36;33.90;53.60
17797;DHT22;55596;53.554;9.916;2022-07-24T12:56:14;33.40;57.50
17797;DHT22;55596;53.554;9.916;2022-07-24T12:59:03;33.10;57.90
17797;DHT22;55596;53.554;9.916;2022-07-24T13:01:46;33.70;55.40
17797;DHT22;55596;53.554;9.916;2022-07-24T13:04:16;34.20;55.10
17797;DHT22;55596;53.554;9.916;2022-07-24T13:06:45;35.10;53.60
17797;DHT22;55596;53.554;9.916;2022-07-24T13:09:14;34.80;54.70
17797;DHT22;55596;53.554;9.916;2022-07-24T13:11:43;35.40;54.00
17797;DHT22;55596;53.554;9.916;2022-07-24T13:14:11;35.10;52.40
17797;DHT22;55596;53.554;9.916;2022-07-24T13:16:40;35.00;53.60
17797;DHT22;55596;53.554;9.916;2022-07-24T13:19:08;34.80;54.50
17797;DHT22;55596;53.554;9.916;2022-07-24T13:21:38;35.40;54.80
17797;DHT22;55596;53.554;9.916;2022-07-24T13:24:06;36.40;47.80
17797;DHT22;55596;53.554;9.916;2022-07-24T13:26:34;36.70;46.70
17797;DHT22;55596;53.554;9.916;2022-07-24T13:29:02;36.00;50.60
17797;DHT22;55596;53.554;9.916;2022-07-24T13:31:29;34.80;52.80
17797;DHT22;55596;53.554;9.916;2022-07-24T13:33:56;34.80;45.40
17797;DHT22;55596;53.554;9.916;2022-07-24T13:36:24;35.90;52.10
17797;DHT22;55596;53.554;9.916;2022-07-24T13:38:52;37.10;51.20
17797;DHT22;55596;53.554;9.916;2022-07-24T13:41:19;38.50;46.50
17797;DHT22;55596;53.554;9.916;2022-07-24T13:43:48;38.40;48.80
17797;DHT22;55596;53.554;9.916;2022-07-24T13:46:16;39.40;49.20
17797;DHT22;55596;53.554;9.916;2022-07-24T13:48:44;40.50;47.00
17797;DHT22;55596;53.554;9.916;2022-07-24T13:51:11;41.00;45.00
17797;DHT22;55596;53.554;9.916;2022-07-24T13:53:39;41.40;44.40
17797;DHT22;55596;53.554;9.916;2022-07-24T13:56:10;41.30;34.30
17797;DHT22;55596;53.554;9.916;2022-07-24T13:58:37;41.40;42.40
17797;DHT22;55596;53.554;9.916;2022-07-24T14:01:06;40.80;42.90
17797;DHT22;55596;53.554;9.916;2022-07-24T14:03:33;40.50;43.50
17797;DHT22;55596;53.554;9.916;2022-07-24T14:06:02;39.30;44.10
17797;DHT22;55596;53.554;9.916;2022-07-24T14:08:29;39.00;32.80
17797;DHT22;55596;53.554;9.916;2022-07-24T14:10:56;38.80;44.80
17797;DHT22;55596;53.554;9.916;2022-07-24T14:13:25;40.00;36.40
17797;DHT22;55596;53.554;9.916;2022-07-24T14:15:52;39.80;42.90
17797;DHT22;55596;53.554;9.916;2022-07-24T14:18:20;39.00;38.70
17797;DHT22;55596;53.554;9.916;2022-07-24T14:20:47;39.40;43.10
17797;DHT22;55596;53.554;9.916;2022-07-24T14:23:14;39.20;43.90
17797;DHT22;55596;53.554;9.916;2022-07-24T14:25:42;39.50;35.80
17797;DHT22;55596;53.554;9.916;2022-07-24T14:28:10;39.70;43.90
17797;DHT22;55596;53.554;9.916;2022-07-24T14:30:39;39.20;42.20
17797;DHT22;55596;53.554;9.916;2022-07-24T14:33:06;39.70;43.00
17797;DHT22;55596;53.554;9.916;2022-07-24T14:35:34;40.50;41.50
17797;DHT22;55596;53.554;9.916;2022-07-24T14:38:01;40.50;42.40
17797;DHT22;55596;53.554;9.916;2022-07-24T14:40:28;40.60;36.40
17797;DHT22;55596;53.554;9.916;2022-07-24T14:42:55;39.80;41.90
17797;DHT22;55596;53.554;9.916;2022-07-24T14:45:22;40.70;39.60
17797;DHT22;55596;53.554;9.916;2022-07-24T14:47:50;40.20;40.60
17797;DHT22;55596;53.554;9.916;2022-07-24T14:50:18;40.00;41.30
17797;DHT22;55596;53.554;9.916;2022-07-24T14:52:46;41.30;37.80
17797;DHT22;55596;53.554;9.916;2022-07-24T14:55:13;40.30;38.90
17797;DHT22;55596;53.554;9.916;2022-07-24T14:57:40;40.30;42.10
17797;DHT22;55596;53.554;9.916;2022-07-24T15:00:08;40.40;42.10
17797;DHT22;55596;53.554;9.916;2022-07-24T15:02:35;40.70;40.10
17797;DHT22;55596;53.554;9.916;2022-07-24T15:05:04;41.30;42.60
17797;DHT22;55596;53.554;9.916;2022-07-24T15:07:31;41.60;41.40
17797;DHT22;55596;53.554;9.916;2022-07-24T15:09:59;41.70;37.40
17797;DHT22;55596;53.554;9.916;2022-07-24T15:12:26;40.90;32.00
17797;DHT22;55596;53.554;9.916;2022-07-24T15:14:53;41.50;38.80
17797;DHT22;55596;53.554;9.916;2022-07-24T15:17:20;41.80;40.60
17797;DHT22;55596;53.554;9.916;2022-07-24T15:19:47;42.00;40.50
17797;DHT22;55596;53.554;9.916;2022-07-24T15:22:16;42.20;35.10
17797;DHT22;55596;53.554;9.916;2022-07-24T15:24:44;42.60;37.70
17797;DHT22;55596;53.554;9.916;2022-07-24T15:27:11;40.00;37.30
17797;DHT22;55596;53.554;9.916;2022-07-24T15:29:38;41.00;39.70
17797;DHT22;55596;53.554;9.916;2022-07-24T15:32:05;41.30;41.70
17797;DHT22;55596;53.554;9.916;2022-07-24T15:34:33;41.80;39.90
17797;DHT22;55596;53.554;9.916;2022-07-24T15:37:00;42.20;39.70
17797;DHT22;55596;53.554;9.916;2022-07-24T15:39:29;42.30;36.30
17797;DHT22;55596;53.554;9.916;2022-07-24T15:41:56;41.40;39.20
17797;DHT22;55596;53.554;9.916;2022-07-24T15:44:23;40.50;39.10